createdAt,value
2019-01-20T00:02:20.298Z,17.23
2019-01-20T00:04:46.851Z,17.77
2019-01-20T00:07:13.115Z,17.43
2019-01-20T00:09:39.479Z,18.03
2019-01-20T00:12:05.841Z,16.67
2019-01-20T00:14:32.101Z,16.27
2019-01-20T00:16:58.376Z,16.07
2019-01-20T00:19:24.629Z,14.03
2019-01-20T00:21:51.470Z,14.67
2019-01-20T00:24:18.204Z,12.77
2019-01-20T00:26:44.859Z,15.40
2019-01-20T00:29:11.318Z,16.33
2019-01-20T00:31:37.583Z,15.70
2019-01-20T00:34:04.175Z,15.60
2019-01-20T00:36:30.427Z,16.67
2019-01-20T00:38:56.671Z,16.43
2019-01-20T00:41:24.151Z,15.47
2019-01-20T00:43:50.790Z,15.00
2019-01-20T00:46:17.070Z,16.53
2019-01-20T00:48:43.354Z,17.70
2019-01-20T00:51:09.916Z,17.33
2019-01-20T00:53:36.154Z,17.30
2019-01-20T00:56:03.039Z,15.90
2019-01-20T00:58:29.303Z,17.30
2019-01-20T01:00:55.770Z,17.00
2019-01-20T01:03:22.347Z,18.23
2019-01-20T01:05:48.600Z,17.83
2019-01-20T01:08:14.947Z,18.13
2019-01-20T01:10:41.221Z,15.47
2019-01-20T01:13:07.979Z,16.77
2019-01-20T01:15:34.370Z,17.10
2019-01-20T01:18:00.850Z,15.60
2019-01-20T01:20:27.194Z,17.57
2019-01-20T01:22:53.475Z,19.13
2019-01-20T01:25:19.819Z,19.53
2019-01-20T01:27:46.292Z,18.87
2019-01-20T01:30:17.732Z,19.63
2019-01-20T01:32:44.179Z,18.00
2019-01-20T01:35:10.838Z,18.40
2019-01-20T01:37:37.122Z,18.80
2019-01-20T01:40:07.190Z,18.57
2019-01-20T01:42:33.875Z,18.93
2019-01-20T01:45:00.492Z,17.20
2019-01-20T01:47:27.130Z,19.33
2019-01-20T01:49:53.409Z,19.50
2019-01-20T01:52:19.656Z,19.43
2019-01-20T01:54:45.943Z,17.20
2019-01-20T01:57:12.199Z,17.93
2019-01-20T01:59:38.459Z,19.40
2019-01-20T02:02:04.942Z,17.40
2019-01-20T02:04:31.639Z,16.57
2019-01-20T02:06:57.992Z,17.23
2019-01-20T02:09:24.364Z,17.23
2019-01-20T02:11:50.743Z,16.10
2019-01-20T02:14:17.282Z,16.23
2019-01-20T02:16:43.551Z,18.17
2019-01-20T02:19:09.818Z,18.77
2019-01-20T02:21:36.077Z,17.57
2019-01-20T02:24:02.467Z,15.90
2019-01-20T02:26:28.744Z,17.03
2019-01-20T02:28:55.006Z,18.13
2019-01-20T02:31:21.268Z,16.70
2019-01-20T02:33:47.527Z,17.33
2019-01-20T02:36:13.885Z,16.37
2019-01-20T02:38:40.385Z,16.93
2019-01-20T02:41:06.632Z,16.63
2019-01-20T02:43:32.907Z,17.30
2019-01-20T02:45:59.563Z,17.03
2019-01-20T02:48:25.899Z,17.73
2019-01-20T02:50:52.201Z,18.27
2019-01-20T02:53:18.739Z,18.00
2019-01-20T02:55:44.991Z,17.33
2019-01-20T02:58:11.275Z,18.97
2019-01-20T03:00:37.659Z,17.90
2019-01-20T03:03:04.218Z,15.23
2019-01-20T03:05:30.692Z,17.87
2019-01-20T03:07:56.956Z,18.93
2019-01-20T03:10:23.235Z,19.47
2019-01-20T03:12:49.499Z,18.87
2019-01-20T03:15:15.948Z,18.60
2019-01-20T03:17:42.335Z,16.00
2019-01-20T03:20:12.380Z,17.97
2019-01-20T03:22:38.791Z,17.10
2019-01-20T03:25:08.854Z,18.63
2019-01-20T03:27:35.097Z,19.00
2019-01-20T03:30:02.190Z,18.07
2019-01-20T03:32:28.436Z,17.50
2019-01-20T03:34:54.789Z,18.23
2019-01-20T03:37:21.076Z,19.00
2019-01-20T03:39:47.708Z,19.87
2019-01-20T03:42:14.200Z,17.57
2019-01-20T03:44:40.462Z,16.13
2019-01-20T03:47:06.716Z,19.13
2019-01-20T03:49:32.992Z,18.10
2019-01-20T03:51:59.251Z,16.47
2019-01-20T03:54:25.800Z,20.87
2019-01-20T03:56:52.104Z,16.40
2019-01-20T03:59:18.856Z,18.07
2019-01-20T04:01:45.272Z,19.07
2019-01-20T04:04:11.507Z,16.93
2019-01-20T04:06:46.315Z,18.57
2019-01-20T04:09:12.663Z,19.67
2019-01-20T04:11:39.239Z,19.33
2019-01-20T04:14:05.947Z,18.50
2019-01-20T04:16:32.473Z,18.13
2019-01-20T04:18:58.742Z,15.77
2019-01-20T04:21:25.338Z,18.13
2019-01-20T04:23:51.585Z,19.63
2019-01-20T04:26:17.845Z,18.80
2019-01-20T04:28:44.314Z,17.83
2019-01-20T04:31:10.571Z,18.07
2019-01-20T04:33:36.794Z,18.90
2019-01-20T04:36:03.623Z,23.60
2019-01-20T04:38:30.274Z,20.80
2019-01-20T04:40:56.515Z,19.77
2019-01-20T04:43:23.138Z,21.50
2019-01-20T04:45:49.668Z,19.17
2019-01-20T04:48:15.893Z,19.37
2019-01-20T04:50:42.285Z,20.47
2019-01-20T04:53:08.756Z,17.67
2019-01-20T04:55:35.382Z,20.03
2019-01-20T04:58:01.744Z,18.73
2019-01-20T05:00:28.449Z,19.53
2019-01-20T05:02:54.724Z,19.27
2019-01-20T05:05:21.309Z,19.80
2019-01-20T05:07:47.952Z,20.73
2019-01-20T05:14:34.894Z,20.87
2019-01-20T05:17:01.180Z,17.97
2019-01-20T05:19:27.485Z,20.13
2019-01-20T05:21:53.770Z,20.20
2019-01-20T05:25:11.816Z,21.70
2019-01-20T05:27:38.315Z,20.33
2019-01-20T05:30:14.019Z,20.03
2019-01-20T05:32:40.287Z,18.77
2019-01-20T05:35:08.165Z,22.40
2019-01-20T05:37:34.411Z,22.20
2019-01-20T05:40:00.675Z,21.17
2019-01-20T05:42:26.931Z,19.57
2019-01-20T05:44:53.530Z,26.12
2019-01-20T05:47:19.815Z,22.83
2019-01-20T05:49:46.068Z,21.17
2019-01-20T05:52:12.450Z,22.10
2019-01-20T05:54:38.774Z,20.30
2019-01-20T05:57:05.072Z,22.60
2019-01-20T05:59:31.719Z,21.40
2019-01-20T06:01:57.988Z,20.30
2019-01-20T06:04:24.275Z,21.23
2019-01-20T06:06:50.530Z,19.20
2019-01-20T06:09:16.823Z,22.43
2019-01-20T06:11:43.090Z,22.53
2019-01-20T06:14:09.344Z,21.83
2019-01-20T06:16:35.608Z,21.47
2019-01-20T06:19:01.903Z,22.23
2019-01-20T06:21:28.148Z,21.50
2019-01-20T06:23:54.415Z,20.50
2019-01-20T06:26:20.691Z,21.03
2019-01-20T06:28:46.982Z,21.37
2019-01-20T06:31:13.327Z,19.90
2019-01-20T06:33:40.010Z,20.53
2019-01-20T06:36:06.279Z,20.83
2019-01-20T06:38:32.567Z,22.07
2019-01-20T06:40:59.098Z,17.97
2019-01-20T06:43:25.366Z,20.03
2019-01-20T06:45:51.647Z,23.83
2019-01-20T06:48:17.998Z,23.90
2019-01-20T06:50:44.273Z,23.40
2019-01-20T06:53:10.528Z,22.70
2019-01-20T06:55:36.796Z,21.70
2019-01-20T06:58:03.503Z,21.80
2019-01-20T07:00:30.142Z,21.93
2019-01-20T07:02:56.411Z,22.67
2019-01-20T07:05:22.870Z,23.03
2019-01-20T07:07:49.632Z,23.40
2019-01-20T07:10:17.104Z,20.03
2019-01-20T07:12:43.479Z,22.13
2019-01-20T07:15:12.530Z,24.93
2019-01-20T07:17:39.070Z,23.13
2019-01-20T07:20:08.235Z,20.60
2019-01-20T07:22:34.698Z,21.93
2019-01-20T07:25:01.365Z,19.53
2019-01-20T07:27:27.584Z,27.05
2019-01-20T07:29:53.876Z,25.07
2019-01-20T07:32:20.123Z,25.10
2019-01-20T07:34:46.378Z,23.10
2019-01-20T07:37:12.660Z,21.83
2019-01-20T07:39:39.203Z,24.00
2019-01-20T07:42:05.487Z,21.80
2019-01-20T07:44:31.742Z,20.83
2019-01-20T07:46:58.011Z,23.60
2019-01-20T07:49:24.275Z,23.03
2019-01-20T07:51:50.543Z,23.97
2019-01-20T07:54:16.803Z,26.77
2019-01-20T07:56:43.090Z,23.93
2019-01-20T07:59:09.330Z,25.73
2019-01-20T08:01:35.597Z,24.07
2019-01-20T08:04:02.091Z,26.77
2019-01-20T08:06:28.340Z,26.20
2019-01-20T08:08:54.602Z,29.30
2019-01-20T08:11:20.883Z,28.50
2019-01-20T08:13:47.132Z,27.97
2019-01-20T08:16:13.395Z,30.40
2019-01-20T08:18:39.659Z,41.10
2019-01-20T08:21:06.031Z,41.67
2019-01-20T08:23:32.306Z,37.37
2019-01-20T08:25:58.553Z,37.50
2019-01-20T08:28:24.851Z,35.80
2019-01-20T08:30:51.098Z,32.67
2019-01-20T08:33:17.339Z,32.03
2019-01-20T08:35:43.618Z,30.95
2019-01-20T08:38:09.862Z,27.27
2019-01-20T08:40:36.146Z,28.50
2019-01-20T08:43:02.721Z,28.73
2019-01-20T08:45:35.807Z,26.70
2019-01-20T08:48:08.807Z,28.93
2019-01-20T08:50:35.052Z,27.13
2019-01-20T08:53:01.338Z,27.50
2019-01-20T08:55:27.606Z,25.00
2019-01-20T08:57:53.959Z,29.43
2019-01-20T09:00:20.334Z,27.80
2019-01-20T09:02:46.839Z,28.50
2019-01-20T09:05:13.383Z,29.20
2019-01-20T09:07:39.646Z,27.13
2019-01-20T09:10:09.715Z,26.53
2019-01-20T09:12:37.168Z,27.67
2019-01-20T09:15:06.571Z,28.37
2019-01-20T09:17:33.164Z,29.57
2019-01-20T09:19:59.451Z,29.73
2019-01-20T09:22:26.040Z,27.73
2019-01-20T09:24:52.399Z,37.20
2019-01-20T09:27:19.011Z,31.97
2019-01-20T09:29:45.274Z,30.13
2019-01-20T09:32:11.642Z,29.77
2019-01-20T09:34:37.901Z,29.33
2019-01-20T09:37:04.267Z,30.10
2019-01-20T09:39:30.526Z,32.00
2019-01-20T09:41:56.811Z,36.73
2019-01-20T09:44:23.060Z,36.00
2019-01-20T09:46:49.318Z,40.75
2019-01-20T09:49:15.699Z,34.00
2019-01-20T09:51:42.053Z,31.30
2019-01-20T09:54:08.434Z,34.87
2019-01-20T09:56:34.680Z,31.13
2019-01-20T09:59:00.974Z,29.10
2019-01-20T10:01:27.234Z,30.23
2019-01-20T10:03:53.833Z,28.97
2019-01-20T10:06:20.116Z,32.60
2019-01-20T10:08:46.371Z,26.73
2019-01-20T10:11:12.746Z,29.80
2019-01-20T10:13:39.002Z,29.93
2019-01-20T10:16:05.355Z,30.70
2019-01-20T10:18:31.634Z,29.53
2019-01-20T10:20:58.002Z,25.27
2019-01-20T10:23:24.248Z,31.20
2019-01-20T10:25:50.626Z,31.30
2019-01-20T10:28:16.868Z,24.80
2019-01-20T10:30:43.340Z,27.37
2019-01-20T10:33:10.011Z,27.47
2019-01-20T10:35:38.257Z,29.20
2019-01-20T10:38:06.829Z,28.70
2019-01-20T10:40:33.393Z,28.03
2019-01-20T10:42:59.734Z,28.40
2019-01-20T10:45:26.229Z,27.47
2019-01-20T10:47:52.506Z,26.97
2019-01-20T10:50:18.951Z,26.27
2019-01-20T10:52:45.758Z,28.00
2019-01-20T10:55:12.215Z,28.63
2019-01-20T10:57:38.590Z,26.63
2019-01-20T11:00:14.835Z,25.87
2019-01-20T11:02:41.088Z,28.70
2019-01-20T11:05:07.746Z,26.13
2019-01-20T11:07:34.111Z,26.73
2019-01-20T11:10:00.370Z,25.13
2019-01-20T11:12:26.743Z,32.23
2019-01-20T11:14:52.988Z,29.80
2019-01-20T11:17:19.371Z,22.57
2019-01-20T11:19:45.627Z,27.60
2019-01-20T11:22:11.899Z,27.50
2019-01-20T11:24:38.476Z,26.20
2019-01-20T11:27:04.759Z,29.30
2019-01-20T11:29:31.026Z,29.13
2019-01-20T11:31:57.271Z,28.53
2019-01-20T11:34:23.542Z,24.00
2019-01-20T11:36:49.786Z,26.77
2019-01-20T11:39:16.039Z,25.90
2019-01-20T11:41:42.323Z,25.87
2019-01-20T11:44:08.589Z,35.60
2019-01-20T11:46:34.858Z,28.60
2019-01-20T11:49:01.124Z,26.47
2019-01-20T11:51:27.372Z,27.63
2019-01-20T11:53:53.767Z,29.07
2019-01-20T11:56:20.012Z,25.33
2019-01-20T11:58:46.246Z,24.60
2019-01-20T12:01:12.530Z,22.67
2019-01-20T12:03:38.777Z,25.93
2019-01-20T12:06:05.255Z,22.50
2019-01-20T12:08:31.522Z,21.90
2019-01-20T12:10:57.767Z,23.50
2019-01-20T12:13:26.499Z,19.37
2019-01-20T12:15:52.883Z,22.00
2019-01-20T12:18:19.168Z,23.43
2019-01-20T12:20:45.427Z,22.50
2019-01-20T12:23:12.019Z,24.73
2019-01-20T12:25:38.397Z,23.50
2019-01-20T12:28:04.662Z,24.40
2019-01-20T12:30:34.028Z,26.20
2019-01-20T12:33:02.202Z,24.10
2019-01-20T12:35:28.476Z,21.97
2019-01-20T12:37:55.034Z,21.40
2019-01-20T12:40:24.294Z,20.37
2019-01-20T12:42:50.765Z,26.00
2019-01-20T12:45:17.132Z,23.07
2019-01-20T12:47:43.482Z,26.03
2019-01-20T12:50:13.251Z,24.60
2019-01-20T12:52:39.506Z,22.73
2019-01-20T12:55:06.647Z,21.13
2019-01-20T12:57:33.117Z,18.40
2019-01-20T12:59:59.686Z,20.70
2019-01-20T13:02:25.951Z,16.47
2019-01-20T13:04:56.300Z,14.60
2019-01-20T13:07:20.279Z,16.03
2019-01-20T13:09:46.556Z,22.27
2019-01-20T13:12:12.922Z,17.13
2019-01-20T13:14:39.411Z,32.67
2019-01-20T13:17:05.831Z,19.73
2019-01-20T13:19:32.186Z,18.13
2019-01-20T13:21:58.552Z,18.53
2019-01-20T13:24:24.839Z,19.97
2019-01-20T13:26:51.095Z,15.13
2019-01-20T13:29:17.331Z,18.70
2019-01-20T13:31:43.610Z,15.53
2019-01-20T13:34:09.983Z,16.37
2019-01-20T13:36:37.234Z,13.37
2019-01-20T13:39:07.119Z,15.60
2019-01-20T13:41:33.372Z,22.40
2019-01-20T13:43:59.626Z,19.50
2019-01-20T13:46:26.016Z,19.17
2019-01-20T13:48:52.368Z,30.60
2019-01-20T13:51:18.730Z,24.57
2019-01-20T13:53:45.033Z,23.23
2019-01-20T13:56:11.239Z,21.87
2019-01-20T13:58:37.498Z,26.37
2019-01-20T14:01:03.858Z,20.10
2019-01-20T14:03:30.133Z,21.90
2019-01-20T14:05:56.410Z,19.23
2019-01-20T14:08:22.660Z,34.43
2019-01-20T14:10:48.947Z,20.40
2019-01-20T14:13:15.200Z,27.43
2019-01-20T14:15:41.542Z,23.57
2019-01-20T14:18:07.930Z,22.10
2019-01-20T14:20:34.576Z,18.93
2019-01-20T14:23:00.843Z,20.67
2019-01-20T14:25:28.434Z,18.43
2019-01-20T14:27:54.774Z,18.67
2019-01-20T14:30:24.034Z,18.57
2019-01-20T14:32:50.296Z,22.13
2019-01-20T14:35:16.756Z,26.70
2019-01-20T14:37:43.155Z,29.57
2019-01-20T14:40:15.034Z,22.13
2019-01-20T14:42:41.294Z,23.93
2019-01-20T14:45:10.983Z,21.57
2019-01-20T14:47:37.424Z,23.40
2019-01-20T14:50:07.312Z,22.53
2019-01-20T14:52:33.962Z,22.83
2019-01-20T14:55:00.231Z,22.47
2019-01-20T14:57:26.485Z,19.17
2019-01-20T14:59:52.843Z,24.03
2019-01-20T15:02:19.119Z,21.13
2019-01-20T15:04:45.374Z,23.50
2019-01-20T15:07:11.677Z,20.10
2019-01-20T15:09:37.930Z,21.47
2019-01-20T15:12:04.382Z,20.87
2019-01-20T15:14:32.418Z,18.73
2019-01-20T15:16:58.725Z,25.33
2019-01-20T15:19:25.064Z,23.10
2019-01-20T15:21:51.342Z,23.53
2019-01-20T15:24:17.607Z,22.60
2019-01-20T15:26:43.875Z,26.10
2019-01-20T15:29:10.555Z,23.60
2019-01-20T15:31:36.824Z,23.70
2019-01-20T15:34:03.467Z,23.57
2019-01-20T15:36:29.726Z,25.03
2019-01-20T15:38:55.994Z,21.63
2019-01-20T15:41:22.612Z,27.02
2019-01-20T15:43:48.981Z,25.07
2019-01-20T15:46:15.231Z,23.90
2019-01-20T15:48:41.506Z,24.80
2019-01-20T15:51:07.768Z,27.60
2019-01-20T15:53:34.016Z,25.77
2019-01-20T15:56:00.294Z,26.67
2019-01-20T15:58:26.820Z,25.70
2019-01-20T16:00:53.224Z,29.70
2019-01-20T16:03:19.483Z,30.53
2019-01-20T16:05:45.719Z,26.53
2019-01-20T16:08:12.339Z,30.10
2019-01-20T16:10:38.580Z,24.23
2019-01-20T16:13:04.875Z,30.80
2019-01-20T16:15:32.754Z,31.93
2019-01-20T16:17:59.200Z,28.57
2019-01-20T16:20:26.283Z,28.47
2019-01-20T16:22:52.646Z,28.33
2019-01-20T16:25:22.719Z,26.20
2019-01-20T16:27:49.098Z,28.70
2019-01-20T16:30:18.542Z,26.83
2019-01-20T16:32:45.244Z,26.73
2019-01-20T16:35:12.635Z,25.67
2019-01-20T16:37:38.916Z,26.77
2019-01-20T16:40:08.861Z,32.33
2019-01-20T16:42:35.123Z,29.67
2019-01-20T16:45:01.600Z,28.30
2019-01-20T16:47:27.829Z,33.23
2019-01-20T16:49:54.482Z,28.37
2019-01-20T16:52:21.219Z,27.23
2019-01-20T16:54:47.479Z,28.10
2019-01-20T16:57:13.742Z,27.07
2019-01-20T16:59:40.111Z,28.80
2019-01-20T17:02:06.559Z,31.57
2019-01-20T17:04:32.843Z,29.87
2019-01-20T17:06:59.107Z,29.43
2019-01-20T17:09:25.383Z,30.40
2019-01-20T17:11:51.646Z,29.43
2019-01-20T17:14:17.883Z,31.00
2019-01-20T17:16:44.167Z,33.80
2019-01-20T17:19:17.225Z,34.80
2019-01-20T17:21:38.471Z,37.17
2019-01-20T17:24:04.952Z,33.87
2019-01-20T17:26:32.067Z,45.73
2019-01-20T17:28:58.325Z,42.10
2019-01-20T17:31:24.610Z,38.03
2019-01-20T17:33:50.982Z,34.93
2019-01-20T17:36:17.233Z,33.00
2019-01-20T17:38:43.479Z,34.50
2019-01-20T17:41:09.827Z,29.83
2019-01-20T17:43:36.119Z,31.37
2019-01-20T17:46:03.071Z,31.40
2019-01-20T17:48:29.359Z,27.80
2019-01-20T17:50:55.633Z,28.83
2019-01-20T17:53:21.903Z,27.27
2019-01-20T17:55:48.275Z,29.13
2019-01-20T17:58:14.531Z,28.60
2019-01-20T18:00:48.451Z,27.40
2019-01-20T18:03:15.017Z,26.50
2019-01-20T18:05:41.779Z,25.27
2019-01-20T18:08:08.138Z,27.73
2019-01-20T18:10:34.500Z,25.53
2019-01-20T18:13:00.860Z,26.67
2019-01-20T18:15:27.214Z,25.80
2019-01-20T18:17:53.671Z,34.23
2019-01-20T18:20:23.053Z,27.57
2019-01-20T18:22:49.552Z,26.60
2019-01-20T18:25:17.116Z,28.10
2019-01-20T18:27:43.595Z,26.07
2019-01-20T18:30:21.646Z,25.73
2019-01-20T18:32:47.883Z,28.10
2019-01-20T18:35:14.603Z,24.83
2019-01-20T18:37:40.976Z,25.03
2019-01-20T18:40:18.743Z,28.43
2019-01-20T18:42:45.528Z,30.30
2019-01-20T18:45:16.699Z,27.67
2019-01-20T18:47:43.074Z,28.00
2019-01-20T18:50:15.431Z,30.80
2019-01-20T18:52:42.140Z,35.83
2019-01-20T18:55:11.006Z,37.03
2019-01-20T18:57:37.267Z,32.57
2019-01-20T19:00:21.723Z,32.83
2019-01-20T19:02:48.015Z,36.07
2019-01-20T19:05:15.957Z,32.50
2019-01-20T19:07:42.562Z,34.27
2019-01-20T19:10:14.912Z,40.43
2019-01-20T19:12:41.351Z,38.40
2019-01-20T19:15:10.829Z,41.13
2019-01-20T19:17:37.199Z,38.30
2019-01-20T19:20:12.924Z,41.57
2019-01-20T19:22:39.499Z,41.57
2019-01-20T19:25:05.961Z,38.53
2019-01-20T19:27:32.463Z,35.77
2019-01-20T19:29:58.743Z,37.80
2019-01-20T19:32:25.007Z,35.73
2019-01-20T19:34:51.303Z,37.67
2019-01-20T19:37:17.576Z,38.83
2019-01-20T19:39:50.381Z,39.13
2019-01-20T19:42:11.901Z,37.40
2019-01-20T19:44:38.155Z,37.40
2019-01-20T19:47:04.418Z,37.20
2019-01-20T19:49:30.716Z,40.57
2019-01-20T19:51:56.960Z,36.70
2019-01-20T19:54:23.230Z,31.67
2019-01-20T19:56:49.501Z,35.30
2019-01-20T19:59:15.764Z,35.63
2019-01-20T20:01:42.043Z,36.07
2019-01-20T20:04:08.316Z,37.27
2019-01-20T20:06:34.592Z,38.53
2019-01-20T20:09:00.866Z,34.77
2019-01-20T20:11:27.111Z,34.53
2019-01-20T20:13:53.403Z,30.80
2019-01-20T20:16:23.408Z,31.57
2019-01-20T20:18:47.843Z,26.60
2019-01-20T20:21:14.101Z,37.53
2019-01-20T20:23:40.368Z,37.80
2019-01-20T20:26:06.641Z,33.43
2019-01-20T20:28:32.911Z,34.60
2019-01-20T20:30:59.185Z,35.90
2019-01-20T20:33:25.463Z,37.93
2019-01-20T20:35:51.707Z,37.70
2019-01-20T20:38:18.071Z,35.57
2019-01-20T20:40:44.442Z,28.50
2019-01-20T20:43:10.712Z,37.83
2019-01-20T20:45:37.078Z,33.43
2019-01-20T20:48:03.536Z,39.13
2019-01-20T20:50:29.798Z,35.20
2019-01-20T20:52:56.067Z,29.03
2019-01-20T20:55:22.744Z,36.43
2019-01-20T20:57:49.307Z,27.50
2019-01-20T21:00:24.712Z,27.20
2019-01-20T21:02:51.161Z,28.73
2019-01-20T21:05:17.441Z,28.07
2019-01-20T21:07:44.239Z,28.67
2019-01-20T21:10:15.668Z,27.70
2019-01-20T21:12:41.938Z,27.07
2019-01-20T21:15:11.288Z,25.57
2019-01-20T21:17:37.572Z,24.83
2019-01-20T21:20:10.071Z,33.00
2019-01-20T21:22:36.640Z,29.50
2019-01-20T21:25:06.111Z,29.87
2019-01-20T21:27:32.395Z,26.70
2019-01-20T21:29:58.664Z,27.80
2019-01-20T21:32:24.930Z,28.90
2019-01-20T21:34:51.176Z,27.57
2019-01-20T21:37:17.787Z,31.10
2019-01-20T21:39:44.334Z,32.90
2019-01-20T21:42:10.703Z,26.13
2019-01-20T21:44:36.977Z,31.00
2019-01-20T21:47:03.464Z,31.70
2019-01-20T21:49:29.712Z,31.93
2019-01-20T21:51:55.974Z,25.43
2019-01-20T21:54:22.254Z,30.13
2019-01-20T21:56:48.523Z,32.67
2019-01-20T21:59:14.793Z,31.80
2019-01-20T22:01:41.051Z,28.67
2019-01-20T22:04:07.325Z,28.97
2019-01-20T22:06:33.671Z,26.97
2019-01-20T22:08:59.970Z,33.47
2019-01-20T22:11:26.230Z,33.03
2019-01-20T22:13:52.516Z,31.77
2019-01-20T22:16:18.874Z,27.10
2019-01-20T22:18:45.111Z,29.97
2019-01-20T22:21:11.390Z,29.10
2019-01-20T22:23:37.636Z,27.03
2019-01-20T22:26:04.008Z,26.70
2019-01-20T22:28:30.275Z,28.37
2019-01-20T22:30:56.547Z,24.77
2019-01-20T22:33:22.805Z,27.13
2019-01-20T22:35:49.078Z,26.20
2019-01-20T22:38:15.336Z,24.10
2019-01-20T22:40:41.618Z,27.80
2019-01-20T22:43:07.887Z,26.27
2019-01-20T22:45:34.131Z,30.10
2019-01-20T22:48:00.430Z,26.30
2019-01-20T22:50:26.801Z,30.90
2019-01-20T22:52:53.259Z,30.37
2019-01-20T22:55:19.535Z,30.73
2019-01-20T22:57:45.998Z,29.57
2019-01-20T23:00:25.822Z,28.67
2019-01-20T23:02:52.184Z,32.03
2019-01-20T23:05:18.560Z,24.47
2019-01-20T23:07:44.832Z,29.00
2019-01-20T23:10:11.079Z,30.17
2019-01-20T23:12:37.359Z,30.50
2019-01-20T23:15:07.236Z,31.23
2019-01-20T23:17:33.512Z,30.47
2019-01-20T23:19:59.787Z,29.30
2019-01-20T23:22:26.028Z,30.83
2019-01-20T23:24:52.687Z,30.13
2019-01-20T23:27:18.930Z,26.60
2019-01-20T23:29:45.292Z,26.90
2019-01-20T23:32:11.624Z,30.30
2019-01-20T23:34:37.825Z,22.63
2019-01-20T23:37:04.206Z,28.87
2019-01-20T23:39:30.466Z,26.50
2019-01-20T23:41:56.711Z,31.40
2019-01-20T23:44:23.308Z,30.50
2019-01-20T23:46:49.583Z,27.83
2019-01-20T23:49:15.836Z,28.17
2019-01-20T23:51:42.094Z,26.00
2019-01-20T23:54:08.392Z,28.83
2019-01-20T23:56:34.644Z,24.10
2019-01-20T23:59:00.903Z,27.10
